CST,Max TemperatureF,Mean TemperatureF,Min TemperatureF,Max Dew PointF,MeanDew PointF,Min DewpointF,Max Humidity, Mean Humidity, Min Humidity, Max Sea Level PressureIn, Mean Sea Level PressureIn, Min Sea Level PressureIn, Max VisibilityMiles, Mean VisibilityMiles, Min VisibilityMiles, Max Wind SpeedMPH, Mean Wind SpeedMPH, Max Gust SpeedMPH,PrecipitationIn, CloudCover, Events, WindDirDegrees
2014-1-1,63,48,32,45,38,30,92,72,52,30.20,30.11,29.99,10,10,9,10,4,15,0.00,1,,124
2014-1-2,57,47,36,47,30,25,92,60,28,30.49,30.38,30.14,10,10,10,22,9,30,0.00,0,,331
2014-1-3,57,45,33,29,24,18,75,50,24,30.40,30.25,30.07,10,10,10,22,11,28,0.00,0,,120
2014-1-4,63,50,37,46,39,29,92,68,43,30.05,29.93,29.77,10,9,3,13,6,17,0.00,1,,116
2014-1-5,58,49,40,46,28,19,93,61,28,30.42,30.14,29.77,10,10,10,25,11,35,0.00,0,,339
2014-1-6,40,35,30,19,12,10,44,38,32,30.72,30.60,30.44,10,10,10,13,6,17,0.00,0,,66
2014-1-7,49,38,26,30,21,12,64,51,37,30.58,30.42,30.27,10,10,10,22,12,26,0.00,1,,127
2014-1-8,53,46,39,41,35,30,89,72,54,30.25,30.15,30.04,10,10,9,15,7,22,0.00,3,,123
2014-1-9,56,47,38,49,44,36,100,89,77,30.18,30.09,29.97,8,4,0,9,3,,0.00,6,Fog,290
2014-1-10,67,58,48,52,49,45,100,74,48,29.96,29.89,29.79,10,6,0,10,2,13,0.00,5,Fog,358
2014-1-11,78,58,38,44,31,21,96,54,12,30.18,30.06,29.91,10,9,5,14,5,19,0.00,0,,324
2014-1-12,75,60,45,52,42,30,72,50,27,30.06,29.95,29.84,10,10,10,20,10,27,0.00,0,,104
2014-1-13,71,56,40,50,25,5,93,51,8,30.19,30.08,29.87,10,10,9,26,10,31,0.00,0,,311
2014-1-14,76,53,29,28,19,11,61,35,9,30.33,30.15,30.05,10,10,10,23,8,34,0.00,0,,348
2014-1-15,65,50,35,29,24,15,70,44,17,30.49,30.32,30.12,10,10,10,15,7,20,0.00,0,,138
2014-1-16,74,53,32,30,24,20,56,35,13,30.16,30.07,29.99,10,10,10,10,5,14,0.00,0,,63
2014-1-17,66,54,41,35,26,19,70,45,19,30.35,30.25,30.17,10,10,10,15,7,21,0.00,0,,120
2014-1-18,70,55,40,38,32,24,61,45,28,30.19,30.15,30.06,10,10,10,12,6,15,0.00,0,,108
2014-1-19,74,57,39,39,36,34,79,52,25,30.32,30.19,30.07,10,10,10,15,5,19,0.00,0,,123
2014-1-20,85,64,42,40,30,18,76,43,10,30.19,30.01,29.88,10,10,10,15,6,19,0.00,0,,1
2014-1-21,66,53,40,24,18,12,41,27,12,30.47,30.32,30.21,10,10,9,16,6,19,0.00,0,,330
2014-1-22,73,54,34,26,20,17,56,35,14,30.19,30.03,29.90,10,10,10,22,10,29,0.00,0,,107
2014-1-23,58,45,32,42,27,9,65,47,28,30.72,30.29,29.93,10,10,10,22,12,29,T,6,,5
2014-1-24,47,39,30,15,8,1,45,34,22,30.74,30.58,30.37,10,10,10,15,7,20,0.00,4,,330
2014-1-25,64,46,27,26,20,16,63,41,19,30.34,30.18,30.01,10,10,10,7,4,9,0.00,0,,120
2014-1-26,87,63,38,37,33,28,70,44,17,29.97,29.83,29.68,10,10,10,24,5,29,0.00,0,,327
2014-1-27,61,51,40,34,21,8,60,41,21,30.20,30.05,29.80,10,10,4,25,11,34,0.00,0,,348
2014-1-28,40,37,33,14,2,-5,37,26,15,30.47,30.35,30.18,10,10,10,17,9,24,0.00,3,,352
2014-1-29,50,36,21,13,5,-3,44,30,16,30.45,30.33,30.19,10,10,10,18,8,26,0.00,0,,124
2014-1-30,65,49,32,41,30,14,64,49,34,30.17,29.99,29.85,10,10,10,17,11,25,0.00,0,,122
2014-1-31,73,60,46,50,46,41,100,71,41,29.94,29.83,29.73,10,8,1,12,5,17,0.00,4,,109